My Meet Scores
Gabriella Egan, St. Charles Gymnastics Academy - MyMeetScores.com
Top100 | Top Teams | Upcoming Meets | Completed Meets | Latest | Add Scores | Help| Support | Bookmark and Share

Gabriella Egan, St. Charles Gymnastics Academy
Personal Bests
LevelVault BarsBeamFloorAA
38.8008.250 8.2258.45033.725
48.9509.475 9.5259.47536.800
69.0759.425 9.7009.65037.275
79.3259.200 9.4509.45036.500
Meet Scores
Date Meet Team Session Level Division Vault Bars Beam Floor AA
2021-04-09 Illinois Level 7 8 State Championships St. Charles Gymnastics Academy 1 7 Jr B 9.300 2 8.675 27 9.250 10T 9.275 18 36.500 16
2021-03-12 LUCKY INVITATIONAL St. Charles Gymnastics Academy B07 7 Jr A 8.725 14 9.200 10 9.300 9 9.200 12T 36.425 11
2021-02-19 BIG Classic 2021 St. Charles Gymnastics Academy 8A 7 Junior A 8.500 13 8.100 13 9.450 3 9.125 14 35.175 12
2021-02-11 SCGA Classic 2021 St. Charles Gymnastics Academy 1 7 Jr B 9.325 2T 8.100 6 9.100 2 9.450 5T 35.975 4
2021-02-11 SCGA Classic 2021 St. Charles Gymnastics Academy 7 7 Jr B 9.325 2T 8.100 6 9.450 4T 26.875 6
2021-02-11 SCGA Classic 2021 St. Charles Gymnastics Academy 0 7 Jr B 0.000 6*
2021-01-21 King Arthur Invitational St. Charles Gymnastics Academy 5 7 CH 8.800 6T 8.450 10 9.400 5 9.375 6 36.025 8
2020-02-28 MEGA Spring Invite 2020 St. Charles Gymnastics Academy 2 6 Child 8.925 5 9.300 9 9.550 6 8.950 12T 36.725 7
2020-02-21 Great Western Invitational - Women's St. Charles Gymnastics Academy 11 6 Buckaroo 9.075 14 8.900 17 9.700 2 9.600 3T 37.275 7
2020-02-07 SCGA Classic St. Charles Gymnastics Academy 2 6 child 9.075 2 9.150 3 8.700 5 9.425 4 36.350 3
2020-01-24 Sand Dollar Invitational 2020 St. Charles Gymnastics Academy D06 6 Jr A 8.475 15 9.225 7 8.600 14 9.275 6 35.575 12
2020-01-10 St Jude Benefit Meet St. Charles Gymnastics Academy 1B 6 Jr A 8.200 17T 9.050 14T 7.600 19 9.250 11T 34.100 17
2019-12-13 2019 St Nick St. Charles Gymnastics Academy 4 6 JrA 8.450 9 9.000 6 9.300 2 9.350 6 36.100 6
2019-03-15 Illinois State Championship Level 6,9,10 St. Charles Gymnastics Academy 11 6 Jr A 8.950 15T 9.425 6T 9.100 15 9.425 10T 36.900 8
2019-02-15 Women's Midwest Open St. Charles Gymnastics Academy 01 6 Junior A 8.400 9 8.800 11T 9.225 5 9.425 9T 35.850 8
2019-01-25 Metroplex Challenge St. Charles Gymnastics Academy R05 6 Jr A 9.075 10T 9.200 7T 9.325 3 9.000 15T 36.600 6
2019-01-11 St Jude Benefit Meet St. Charles Gymnastics Academy 2B 6 Jr A 8.100 12 9.150 5T 8.900 7T 9.650 1T 35.800 6
2018-12-07 St. Nick Invite 2018 St. Charles Gymnastics Academy 2 6 JrA 8.400 8 8.075 9 8.675 8T 9.400 2T 34.550 10
2018-03-08 Level 4 & 5 State St. Charles Gymnastics Academy All 4 Ch B 8.775 7 9.475 1 8.400 26 9.125 8 35.775 7T
2018-02-23 Kinetic Classic St. Charles Gymnastics Academy 7 4 Younger 8.450 31T 9.325 5T 8.700 63T 9.325 12T 35.800 26
2018-02-16 Big Classic St. Charles Gymnastics Academy 7B 4 Child A 8.550 4T 9.250 3 9.525 4T 9.475 3 36.800 2
2018-01-26 King Arthur Invitational St. Charles Gymnastics Academy 6 4 JRA 8.950 3T 9.425 2 9.050 10T 9.175 1T 36.600 1
2018-01-12 St Jude Benefit Meet St. Charles Gymnastics Academy 2A 4 JrA 8.200 11T 9.250 7 8.400 17 8.500 10 34.350 12
2017-12-14 2017 Women's Hawaiian Pineapple Classic St. Charles Gymnastics Academy 6A 4 Ages8U 8.050 6 9.050 3 8.300 8 9.125 4 34.525 4
2017-12-01 Ultimate Wish Classic St. Charles Gymnastics Academy 6 4 Jr A 8.150 7 9.000 3 9.300 1 9.075 2 35.525 2
2017-11-17 SCGA Classic St. Charles Gymnastics Academy 2 4 ChildA 8.475 6 8.625 7 8.450 12 8.500 6 34.050 7
2017-02-24 Kinetic Classic St. Charles Gymnastics Academy 5,6 4 All Ages 7.750 120T 7.950 110T 6.350 132 8.450 102T 30.500 129
2017-02-10 IGI Chicago Style Gymnastics Meet St. Charles Gymnastics Academy 621L 4 JrA 8.200 13 8.000 14 8.125 19 8.000 15 32.325 15
2017-01-20 2017 Bravo Classic St. Charles Gymnastics Academy 06B 4 6-8yrs 7.250 13 7.600 12 7.050 13 7.950 12 29.850 13
2017-01-13 St Jude Benefit Meet St. Charles Gymnastics Academy 3A 4 Jr A 7.450 18 7.250 18 7.650 19 7.850 15T 30.200 18
2016-12-15 2016 Hawaiian Pineapple Sanction St. Charles Gymnastics Academy 9A 4 Ages 8U 8.000 5 8.100 2T 8.525 1 8.400 3 33.025 3
2016-12-02 Ultimate Wish Classic St. Charles Gymnastics Academy 13 4 Jr A 8.000 17 6.250 17 7.650 19 7.850 20 29.750 17
2016-01-22 King Arthur Invitational St. Charles Gymnastics Academy S7 3 Jr.A 8.800 9 8.250 13 8.225 12 8.450 16 33.725 13
2015-12-17 2015 Hawaiian Pineapple Classic St. Charles Gymnastics Academy 2B 3 Ages 7U 0.000 8T 7.425 8 7.350 7 8.000 7 22.775 9
Get your scores on
a t-shirt, pin, or hoodie